sensor_id;sensor_type;location;lat;lon;timestamp;pressure;altitude;pressure_sealevel;temperature;humidity
41967;BME280;27656;53.068;8.818;2024-01-27T00:02:04;103011.91;;;4.03;100.00
41967;BME280;27656;53.068;8.818;2024-01-27T00:04:30;103011.66;;;4.10;100.00
41967;BME280;27656;53.068;8.818;2024-01-27T00:06:57;103011.03;;;4.03;100.00
41967;BME280;27656;53.068;8.818;2024-01-27T00:09:23;103005.97;;;3.98;100.00
41967;BME280;27656;53.068;8.818;2024-01-27T00:11:50;103000.84;;;3.97;100.00
41967;BME280;27656;53.068;8.818;2024-01-27T00:14:16;103005.00;;;4.01;100.00
41967;BME280;27656;53.068;8.818;2024-01-27T00:16:43;103000.16;;;3.92;100.00
41967;BME280;27656;53.068;8.818;2024-01-27T00:19:09;102995.22;;;3.84;100.00
41967;BME280;27656;53.068;8.818;2024-01-27T00:21:36;103001.41;;;3.81;100.00
41967;BME280;27656;53.068;8.818;2024-01-27T00:24:03;103013.69;;;3.79;100.00
41967;BME280;27656;53.068;8.818;2024-01-27T00:26:29;103011.16;;;3.78;100.00
41967;BME280;27656;53.068;8.818;2024-01-27T00:28:56;103015.53;;;3.77;100.00
41967;BME280;27656;53.068;8.818;2024-01-27T00:31:22;103015.28;;;3.83;100.00
41967;BME280;27656;53.068;8.818;2024-01-27T00:33:49;103020.75;;;3.77;100.00
41967;BME280;27656;53.068;8.818;2024-01-27T00:36:16;103020.81;;;3.76;100.00
41967;BME280;27656;53.068;8.818;2024-01-27T00:38:43;103020.44;;;3.63;100.00
41967;BME280;27656;53.068;8.818;2024-01-27T00:41:09;103029.16;;;3.62;100.00
41967;BME280;27656;53.068;8.818;2024-01-27T00:43:41;103023.75;;;3.67;100.00
41967;BME280;27656;53.068;8.818;2024-01-27T00:46:08;103035.91;;;3.68;100.00
41967;BME280;27656;53.068;8.818;2024-01-27T00:48:34;103033.50;;;3.63;100.00
41967;BME280;27656;53.068;8.818;2024-01-27T00:51:01;103039.31;;;3.70;100.00
41967;BME280;27656;53.068;8.818;2024-01-27T00:53:27;103040.25;;;3.69;100.00
41967;BME280;27656;53.068;8.818;2024-01-27T00:55:54;103035.97;;;3.66;100.00
41967;BME280;27656;53.068;8.818;2024-01-27T00:58:20;103039.59;;;3.62;100.00
41967;BME280;27656;53.068;8.818;2024-01-27T01:00:46;103029.19;;;3.60;100.00
41967;BME280;27656;53.068;8.818;2024-01-27T01:03:13;103041.75;;;3.74;100.00
41967;BME280;27656;53.068;8.818;2024-01-27T01:05:40;103038.25;;;3.75;100.00
41967;BME280;27656;53.068;8.818;2024-01-27T01:08:06;103043.56;;;3.72;100.00
41967;BME280;27656;53.068;8.818;2024-01-27T01:10:33;103056.94;;;3.65;100.00
41967;BME280;27656;53.068;8.818;2024-01-27T01:12:59;103064.75;;;3.65;100.00
41967;BME280;27656;53.068;8.818;2024-01-27T01:15:26;103067.78;;;3.54;100.00
41967;BME280;27656;53.068;8.818;2024-01-27T01:17:53;103065.72;;;3.62;100.00
41967;BME280;27656;53.068;8.818;2024-01-27T01:20:19;103059.41;;;3.68;100.00
41967;BME280;27656;53.068;8.818;2024-01-27T01:22:46;103064.88;;;3.61;100.00
41967;BME280;27656;53.068;8.818;2024-01-27T01:25:12;103063.00;;;3.65;100.00
41967;BME280;27656;53.068;8.818;2024-01-27T01:27:39;103067.53;;;3.60;100.00
41967;BME280;27656;53.068;8.818;2024-01-27T01:30:05;103071.13;;;3.57;100.00
41967;BME280;27656;53.068;8.818;2024-01-27T01:32:32;103065.25;;;3.51;100.00
41967;BME280;27656;53.068;8.818;2024-01-27T01:34:59;103065.38;;;3.48;100.00
41967;BME280;27656;53.068;8.818;2024-01-27T01:37:26;103060.16;;;3.48;100.00
41967;BME280;27656;53.068;8.818;2024-01-27T01:39:52;103060.78;;;3.54;100.00
41967;BME280;27656;53.068;8.818;2024-01-27T01:42:19;103061.19;;;3.67;100.00
41967;BME280;27656;53.068;8.818;2024-01-27T01:44:50;103064.84;;;3.63;100.00
41967;BME280;27656;53.068;8.818;2024-01-27T01:47:16;103064.09;;;3.59;100.00
41967;BME280;27656;53.068;8.818;2024-01-27T01:49:43;103061.97;;;3.69;100.00
41967;BME280;27656;53.068;8.818;2024-01-27T01:52:10;103068.94;;;3.70;100.00
41967;BME280;27656;53.068;8.818;2024-01-27T01:54:37;103077.44;;;3.75;100.00
41967;BME280;27656;53.068;8.818;2024-01-27T01:57:04;103079.97;;;3.53;100.00
41967;BME280;27656;53.068;8.818;2024-01-27T01:59:30;103078.47;;;3.46;100.00
41967;BME280;27656;53.068;8.818;2024-01-27T02:01:57;103086.31;;;3.46;100.00
41967;BME280;27656;53.068;8.818;2024-01-27T02:04:23;103085.44;;;3.47;100.00
41967;BME280;27656;53.068;8.818;2024-01-27T02:06:50;103087.38;;;3.66;100.00
41967;BME280;27656;53.068;8.818;2024-01-27T02:09:16;103087.81;;;3.53;100.00
41967;BME280;27656;53.068;8.818;2024-01-27T02:11:43;103075.66;;;3.52;100.00
41967;BME280;27656;53.068;8.818;2024-01-27T02:14:09;103082.53;;;3.55;100.00
41967;BME280;27656;53.068;8.818;2024-01-27T02:16:36;103087.31;;;3.67;100.00
41967;BME280;27656;53.068;8.818;2024-01-27T02:19:03;103089.25;;;3.62;100.00
41967;BME280;27656;53.068;8.818;2024-01-27T02:21:30;103088.28;;;3.65;100.00
41967;BME280;27656;53.068;8.818;2024-01-27T02:23:57;103086.44;;;3.43;100.00
41967;BME280;27656;53.068;8.818;2024-01-27T02:26:24;103086.56;;;3.40;100.00
41967;BME280;27656;53.068;8.818;2024-01-27T02:28:50;103088.69;;;3.29;100.00
41967;BME280;27656;53.068;8.818;2024-01-27T02:31:17;103081.09;;;3.46;100.00
41967;BME280;27656;53.068;8.818;2024-01-27T02:33:43;103097.00;;;3.40;100.00
41967;BME280;27656;53.068;8.818;2024-01-27T02:36:10;103094.94;;;3.48;100.00
41967;BME280;27656;53.068;8.818;2024-01-27T02:38:36;103094.38;;;3.40;100.00
41967;BME280;27656;53.068;8.818;2024-01-27T02:41:03;103084.50;;;3.48;100.00
41967;BME280;27656;53.068;8.818;2024-01-27T02:43:29;103091.38;;;3.51;100.00
41967;BME280;27656;53.068;8.818;2024-01-27T02:45:56;103094.56;;;3.35;100.00
41967;BME280;27656;53.068;8.818;2024-01-27T02:48:23;103096.50;;;3.29;100.00
41967;BME280;27656;53.068;8.818;2024-01-27T02:50:49;103098.81;;;3.38;100.00
41967;BME280;27656;53.068;8.818;2024-01-27T02:53:16;103103.88;;;3.43;100.00
41967;BME280;27656;53.068;8.818;2024-01-27T02:55:42;103115.19;;;3.42;100.00
41967;BME280;27656;53.068;8.818;2024-01-27T02:58:09;103117.25;;;3.33;100.00
41967;BME280;27656;53.068;8.818;2024-01-27T03:00:35;103114.75;;;3.30;100.00
41967;BME280;27656;53.068;8.818;2024-01-27T03:03:02;103116.91;;;3.17;100.00
41967;BME280;27656;53.068;8.818;2024-01-27T03:05:29;103107.81;;;3.29;100.00
41967;BME280;27656;53.068;8.818;2024-01-27T03:07:55;103111.22;;;3.31;100.00
41967;BME280;27656;53.068;8.818;2024-01-27T03:10:22;103112.34;;;3.24;100.00
41967;BME280;27656;53.068;8.818;2024-01-27T03:12:48;103116.47;;;3.30;100.00
41967;BME280;27656;53.068;8.818;2024-01-27T03:15:15;103124.00;;;3.39;100.00
41967;BME280;27656;53.068;8.818;2024-01-27T03:17:41;103121.66;;;3.31;100.00
41967;BME280;27656;53.068;8.818;2024-01-27T03:20:08;103119.66;;;3.39;100.00
41967;BME280;27656;53.068;8.818;2024-01-27T03:22:35;103122.44;;;3.35;100.00
41967;BME280;27656;53.068;8.818;2024-01-27T03:25:01;103120.63;;;3.37;100.00
41967;BME280;27656;53.068;8.818;2024-01-27T03:27:28;103127.28;;;3.21;100.00
41967;BME280;27656;53.068;8.818;2024-01-27T03:29:58;103122.34;;;3.11;100.00
41967;BME280;27656;53.068;8.818;2024-01-27T03:32:25;103114.69;;;3.07;100.00
41967;BME280;27656;53.068;8.818;2024-01-27T03:34:52;103120.91;;;3.03;100.00
41967;BME280;27656;53.068;8.818;2024-01-27T03:37:18;103116.69;;;2.98;100.00
41967;BME280;27656;53.068;8.818;2024-01-27T03:39:47;103111.66;;;3.19;100.00
41967;BME280;27656;53.068;8.818;2024-01-27T03:42:13;103117.22;;;3.08;100.00
41967;BME280;27656;53.068;8.818;2024-01-27T03:44:40;103113.03;;;3.04;100.00
41967;BME280;27656;53.068;8.818;2024-01-27T03:47:06;103120.78;;;3.06;100.00
41967;BME280;27656;53.068;8.818;2024-01-27T03:49:33;103113.91;;;3.03;100.00
41967;BME280;27656;53.068;8.818;2024-01-27T03:51:59;103113.34;;;2.95;100.00
41967;BME280;27656;53.068;8.818;2024-01-27T03:54:26;103108.00;;;2.98;100.00
41967;BME280;27656;53.068;8.818;2024-01-27T03:56:54;103115.13;;;2.93;100.00
41967;BME280;27656;53.068;8.818;2024-01-27T03:59:20;103119.97;;;3.04;100.00
41967;BME280;27656;53.068;8.818;2024-01-27T04:01:47;103130.69;;;2.96;100.00
41967;BME280;27656;53.068;8.818;2024-01-27T04:04:13;103138.91;;;2.84;100.00
41967;BME280;27656;53.068;8.818;2024-01-27T04:06:40;103141.72;;;2.78;100.00
41967;BME280;27656;53.068;8.818;2024-01-27T04:09:08;103145.81;;;2.85;100.00
41967;BME280;27656;53.068;8.818;2024-01-27T04:11:37;103142.47;;;2.81;100.00
41967;BME280;27656;53.068;8.818;2024-01-27T04:14:06;103145.22;;;2.76;100.00
41967;BME280;27656;53.068;8.818;2024-01-27T04:16:32;103142.28;;;2.87;100.00
41967;BME280;27656;53.068;8.818;2024-01-27T04:18:59;103144.78;;;2.90;100.00
41967;BME280;27656;53.068;8.818;2024-01-27T04:21:25;103141.34;;;2.90;100.00
41967;BME280;27656;53.068;8.818;2024-01-27T04:23:52;103142.47;;;2.81;100.00
41967;BME280;27656;53.068;8.818;2024-01-27T04:26:18;103157.34;;;2.78;100.00
41967;BME280;27656;53.068;8.818;2024-01-27T04:28:45;103158.63;;;2.66;100.00
41967;BME280;27656;53.068;8.818;2024-01-27T04:31:11;103170.28;;;2.54;100.00
41967;BME280;27656;53.068;8.818;2024-01-27T04:33:38;103166.06;;;2.50;100.00
41967;BME280;27656;53.068;8.818;2024-01-27T04:36:05;103165.38;;;2.43;100.00
41967;BME280;27656;53.068;8.818;2024-01-27T04:38:33;103164.72;;;2.37;100.00
41967;BME280;27656;53.068;8.818;2024-01-27T04:41:00;103158.78;;;2.31;100.00
41967;BME280;27656;53.068;8.818;2024-01-27T04:43:27;103161.75;;;2.19;100.00
41967;BME280;27656;53.068;8.818;2024-01-27T04:45:57;103161.94;;;2.13;100.00
41967;BME280;27656;53.068;8.818;2024-01-27T04:48:23;103158.50;;;2.11;100.00
41967;BME280;27656;53.068;8.818;2024-01-27T04:50:50;103169.13;;;2.05;100.00
41967;BME280;27656;53.068;8.818;2024-01-27T04:53:17;103163.13;;;2.01;100.00
41967;BME280;27656;53.068;8.818;2024-01-27T04:55:43;103171.81;;;2.02;100.00
41967;BME280;27656;53.068;8.818;2024-01-27T04:58:10;103165.81;;;2.00;100.00
41967;BME280;27656;53.068;8.818;2024-01-27T05:00:36;103173.63;;;2.00;100.00
41967;BME280;27656;53.068;8.818;2024-01-27T05:03:03;103170.34;;;1.91;100.00
41967;BME280;27656;53.068;8.818;2024-01-27T05:05:31;103176.53;;;1.87;100.00
41967;BME280;27656;53.068;8.818;2024-01-27T05:08:02;103176.69;;;1.83;100.00
41967;BME280;27656;53.068;8.818;2024-01-27T05:10:28;103177.59;;;1.80;100.00
41967;BME280;27656;53.068;8.818;2024-01-27T05:12:55;103170.69;;;1.79;100.00
41967;BME280;27656;53.068;8.818;2024-01-27T05:15:22;103175.09;;;1.77;100.00
41967;BME280;27656;53.068;8.818;2024-01-27T05:17:49;103167.53;;;1.68;100.00
41967;BME280;27656;53.068;8.818;2024-01-27T05:20:16;103174.59;;;1.64;100.00
41967;BME280;27656;53.068;8.818;2024-01-27T05:22:43;103173.91;;;1.56;100.00
41967;BME280;27656;53.068;8.818;2024-01-27T05:25:10;103176.59;;;1.53;100.00
41967;BME280;27656;53.068;8.818;2024-01-27T05:27:37;103178.47;;;1.50;100.00
41967;BME280;27656;53.068;8.818;2024-01-27T05:30:09;103183.72;;;1.46;100.00
41967;BME280;27656;53.068;8.818;2024-01-27T05:32:36;103179.41;;;1.45;100.00
41967;BME280;27656;53.068;8.818;2024-01-27T05:35:02;103177.78;;;1.41;100.00
41967;BME280;27656;53.068;8.818;2024-01-27T05:37:29;103183.09;;;1.37;100.00
41967;BME280;27656;53.068;8.818;2024-01-27T05:39:56;103186.53;;;1.39;100.00
41967;BME280;27656;53.068;8.818;2024-01-27T05:42:22;103181.31;;;1.39;100.00
41967;BME280;27656;53.068;8.818;2024-01-27T05:44:49;103187.44;;;1.38;100.00
41967;BME280;27656;53.068;8.818;2024-01-27T05:47:16;103195.28;;;1.36;100.00
41967;BME280;27656;53.068;8.818;2024-01-27T05:49:42;103191.75;;;1.37;100.00
41967;BME280;27656;53.068;8.818;2024-01-27T05:52:09;103193.69;;;1.31;100.00
41967;BME280;27656;53.068;8.818;2024-01-27T05:54:35;103199.75;;;1.31;100.00
41967;BME280;27656;53.068;8.818;2024-01-27T05:57:03;103199.78;;;1.28;100.00
41967;BME280;27656;53.068;8.818;2024-01-27T05:59:30;103198.91;;;1.31;100.00
41967;BME280;27656;53.068;8.818;2024-01-27T06:01:56;103196.44;;;1.24;100.00
41967;BME280;27656;53.068;8.818;2024-01-27T06:04:24;103210.41;;;1.20;100.00
41967;BME280;27656;53.068;8.818;2024-01-27T06:06:50;103206.03;;;1.21;100.00
41967;BME280;27656;53.068;8.818;2024-01-27T06:09:17;103215.56;;;1.23;100.00
41967;BME280;27656;53.068;8.818;2024-01-27T06:11:43;103219.06;;;1.21;100.00
41967;BME280;27656;53.068;8.818;2024-01-27T06:14:10;103220.63;;;1.28;100.00
41967;BME280;27656;53.068;8.818;2024-01-27T06:16:36;103225.03;;;1.26;100.00
41967;BME280;27656;53.068;8.818;2024-01-27T06:19:03;103229.31;;;1.27;100.00
41967;BME280;27656;53.068;8.818;2024-01-27T06:21:30;103228.47;;;1.26;100.00
41967;BME280;27656;53.068;8.818;2024-01-27T06:23:56;103220.69;;;1.25;100.00
41967;BME280;27656;53.068;8.818;2024-01-27T06:26:23;103231.09;;;1.25;100.00
41967;BME280;27656;53.068;8.818;2024-01-27T06:28:49;103225.91;;;1.25;100.00
41967;BME280;27656;53.068;8.818;2024-01-27T06:31:16;103238.19;;;1.18;100.00
41967;BME280;27656;53.068;8.818;2024-01-27T06:33:42;103226.00;;;1.22;100.00
41967;BME280;27656;53.068;8.818;2024-01-27T06:36:09;103235.59;;;1.18;100.00
41967;BME280;27656;53.068;8.818;2024-01-27T06:38:39;103234.75;;;1.18;100.00
41967;BME280;27656;53.068;8.818;2024-01-27T06:41:05;103236.59;;;1.14;100.00
41967;BME280;27656;53.068;8.818;2024-01-27T06:43:32;103240.97;;;1.12;100.00
41967;BME280;27656;53.068;8.818;2024-01-27T06:45:58;103258.34;;;1.10;100.00
41967;BME280;27656;53.068;8.818;2024-01-27T06:48:25;103264.50;;;1.06;100.00
41967;BME280;27656;53.068;8.818;2024-01-27T06:50:52;103263.88;;;0.96;100.00
41967;BME280;27656;53.068;8.818;2024-01-27T06:53:19;103262.41;;;0.83;100.00
41967;BME280;27656;53.068;8.818;2024-01-27T06:55:46;103261.63;;;0.79;100.00
41967;BME280;27656;53.068;8.818;2024-01-27T06:58:13;103262.66;;;0.72;100.00
41967;BME280;27656;53.068;8.818;2024-01-27T07:00:39;103255.72;;;0.71;100.00
41967;BME280;27656;53.068;8.818;2024-01-27T07:03:07;103268.88;;;0.67;100.00
41967;BME280;27656;53.068;8.818;2024-01-27T07:05:38;103263.75;;;0.62;100.00
41967;BME280;27656;53.068;8.818;2024-01-27T07:08:07;103268.06;;;0.61;100.00
41967;BME280;27656;53.068;8.818;2024-01-27T07:10:35;103275.94;;;0.60;100.00
41967;BME280;27656;53.068;8.818;2024-01-27T07:13:01;103272.56;;;0.55;100.00
41967;BME280;27656;53.068;8.818;2024-01-27T07:15:28;103271.84;;;0.48;100.00
41967;BME280;27656;53.068;8.818;2024-01-27T07:17:55;103271.84;;;0.47;100.00
41967;BME280;27656;53.068;8.818;2024-01-27T07:20:21;103269.25;;;0.47;100.00
41967;BME280;27656;53.068;8.818;2024-01-27T07:22:50;103267.59;;;0.42;100.00
41967;BME280;27656;53.068;8.818;2024-01-27T07:25:16;103264.16;;;0.42;100.00
41967;BME280;27656;53.068;8.818;2024-01-27T07:27:43;103268.50;;;0.41;100.00
41967;BME280;27656;53.068;8.818;2024-01-27T07:30:10;103272.03;;;0.39;100.00
41967;BME280;27656;53.068;8.818;2024-01-27T07:32:37;103271.13;;;0.40;100.00
41967;BME280;27656;53.068;8.818;2024-01-27T07:35:04;103273.72;;;0.40;100.00
41967;BME280;27656;53.068;8.818;2024-01-27T07:37:32;103280.66;;;0.41;100.00
41967;BME280;27656;53.068;8.818;2024-01-27T07:39:58;103292.66;;;0.47;100.00
41967;BME280;27656;53.068;8.818;2024-01-27T07:42:25;103300.44;;;0.48;100.00
41967;BME280;27656;53.068;8.818;2024-01-27T07:44:51;103300.28;;;0.54;100.00
41967;BME280;27656;53.068;8.818;2024-01-27T07:47:18;103307.06;;;0.61;100.00
41967;BME280;27656;53.068;8.818;2024-01-27T07:49:44;103304.44;;;0.63;100.00
41967;BME280;27656;53.068;8.818;2024-01-27T07:52:11;103295.81;;;0.62;100.00
41967;BME280;27656;53.068;8.818;2024-01-27T07:54:37;103306.09;;;0.67;100.00
41967;BME280;27656;53.068;8.818;2024-01-27T07:57:06;103302.59;;;0.70;100.00
41967;BME280;27656;53.068;8.818;2024-01-27T07:59:33;103307.91;;;0.63;100.00
41967;BME280;27656;53.068;8.818;2024-01-27T08:02:00;103311.25;;;0.69;100.00
41967;BME280;27656;53.068;8.818;2024-01-27T08:04:26;103314.69;;;0.71;100.00
41967;BME280;27656;53.068;8.818;2024-01-27T08:06:53;103317.19;;;0.77;100.00
41967;BME280;27656;53.068;8.818;2024-01-27T08:09:20;103316.22;;;0.81;100.00
41967;BME280;27656;53.068;8.818;2024-01-27T08:11:46;103319.50;;;0.91;100.00
41967;BME280;27656;53.068;8.818;2024-01-27T08:14:18;103323.59;;;1.01;100.00
41967;BME280;27656;53.068;8.818;2024-01-27T08:16:46;103327.78;;;1.06;100.00
41967;BME280;27656;53.068;8.818;2024-01-27T08:19:13;103336.31;;;1.13;100.00
41967;BME280;27656;53.068;8.818;2024-01-27T08:21:47;103336.16;;;1.21;100.00
41967;BME280;27656;53.068;8.818;2024-01-27T08:24:13;103329.06;;;1.27;100.00
41967;BME280;27656;53.068;8.818;2024-01-27T08:26:40;103321.97;;;1.36;100.00
41967;BME280;27656;53.068;8.818;2024-01-27T08:29:09;103326.94;;;1.45;100.00
41967;BME280;27656;53.068;8.818;2024-01-27T08:31:35;103332.72;;;1.56;100.00
41967;BME280;27656;53.068;8.818;2024-01-27T08:34:04;103335.09;;;1.67;100.00
41967;BME280;27656;53.068;8.818;2024-01-27T08:36:31;103327.06;;;1.76;100.00
41967;BME280;27656;53.068;8.818;2024-01-27T08:38:58;103344.31;;;1.80;100.00
41967;BME280;27656;53.068;8.818;2024-01-27T08:41:25;103336.44;;;1.83;100.00
41967;BME280;27656;53.068;8.818;2024-01-27T08:43:55;103344.06;;;1.89;100.00
41967;BME280;27656;53.068;8.818;2024-01-27T08:46:21;103341.41;;;1.93;100.00
41967;BME280;27656;53.068;8.818;2024-01-27T08:48:48;103351.63;;;2.00;100.00
41967;BME280;27656;53.068;8.818;2024-01-27T08:51:15;103353.94;;;2.12;100.00
41967;BME280;27656;53.068;8.818;2024-01-27T08:53:45;103358.09;;;2.20;100.00
41967;BME280;27656;53.068;8.818;2024-01-27T08:56:15;103357.72;;;2.33;100.00
41967;BME280;27656;53.068;8.818;2024-01-27T08:58:44;103369.59;;;2.44;100.00
41967;BME280;27656;53.068;8.818;2024-01-27T09:01:10;103364.34;;;2.45;100.00
41967;BME280;27656;53.068;8.818;2024-01-27T09:03:39;103375.50;;;2.50;100.00
41967;BME280;27656;53.068;8.818;2024-01-27T09:06:08;103372.66;;;2.60;100.00
41967;BME280;27656;53.068;8.818;2024-01-27T09:08:36;103371.56;;;2.68;100.00
41967;BME280;27656;53.068;8.818;2024-01-27T09:11:03;103375.72;;;2.75;100.00
41967;BME280;27656;53.068;8.818;2024-01-27T09:13:29;103380.84;;;2.79;100.00
41967;BME280;27656;53.068;8.818;2024-01-27T09:15:59;103389.28;;;2.87;100.00
41967;BME280;27656;53.068;8.818;2024-01-27T09:18:26;103386.41;;;2.96;100.00
41967;BME280;27656;53.068;8.818;2024-01-27T09:20:53;103388.88;;;3.01;100.00
41967;BME280;27656;53.068;8.818;2024-01-27T09:23:20;103390.47;;;3.06;100.00
41967;BME280;27656;53.068;8.818;2024-01-27T09:25:47;103389.16;;;3.21;100.00
41967;BME280;27656;53.068;8.818;2024-01-27T09:28:13;103381.28;;;3.23;100.00
41967;BME280;27656;53.068;8.818;2024-01-27T09:30:40;103388.78;;;3.33;100.00
41967;BME280;27656;53.068;8.818;2024-01-27T09:33:07;103391.38;;;3.35;100.00
41967;BME280;27656;53.068;8.818;2024-01-27T09:35:34;103388.53;;;3.43;100.00
41967;BME280;27656;53.068;8.818;2024-01-27T09:38:00;103381.44;;;3.46;100.00
41967;BME280;27656;53.068;8.818;2024-01-27T09:40:27;103382.81;;;3.58;100.00
41967;BME280;27656;53.068;8.818;2024-01-27T09:42:56;103387.75;;;3.67;100.00
41967;BME280;27656;53.068;8.818;2024-01-27T09:45:25;103395.50;;;3.70;100.00
41967;BME280;27656;53.068;8.818;2024-01-27T09:47:53;103395.31;;;3.75;100.00
41967;BME280;27656;53.068;8.818;2024-01-27T09:50:23;103401.44;;;3.75;100.00
41967;BME280;27656;53.068;8.818;2024-01-27T09:52:49;103403.69;;;3.86;100.00
41967;BME280;27656;53.068;8.818;2024-01-27T09:55:16;103413.13;;;3.90;100.00
41967;BME280;27656;53.068;8.818;2024-01-27T09:57:44;103418.38;;;3.90;100.00
41967;BME280;27656;53.068;8.818;2024-01-27T10:00:11;103419.88;;;3.97;100.00
41967;BME280;27656;53.068;8.818;2024-01-27T10:02:41;103415.16;;;4.09;100.00
41967;BME280;27656;53.068;8.818;2024-01-27T10:05:09;103412.97;;;4.21;100.00
41967;BME280;27656;53.068;8.818;2024-01-27T10:07:35;103415.56;;;4.23;100.00
41967;BME280;27656;53.068;8.818;2024-01-27T10:10:02;103418.16;;;4.23;100.00
41967;BME280;27656;53.068;8.818;2024-01-27T10:12:28;103412.09;;;4.22;100.00
41967;BME280;27656;53.068;8.818;2024-01-27T10:14:55;103406.59;;;4.30;100.00
41967;BME280;27656;53.068;8.818;2024-01-27T10:17:24;103394.00;;;4.41;100.00
41967;BME280;27656;53.068;8.818;2024-01-27T10:19:59;103402.63;;;4.43;100.00
41967;BME280;27656;53.068;8.818;2024-01-27T10:22:27;103404.06;;;4.52;100.00
41967;BME280;27656;53.068;8.818;2024-01-27T10:24:54;103405.44;;;4.62;100.00
41967;BME280;27656;53.068;8.818;2024-01-27T10:27:22;103405.25;;;4.68;100.00
41967;BME280;27656;53.068;8.818;2024-01-27T10:29:53;103410.31;;;4.73;100.00
41967;BME280;27656;53.068;8.818;2024-01-27T10:32:21;103395.47;;;4.74;100.00
41967;BME280;27656;53.068;8.818;2024-01-27T10:35:01;103403.66;;;4.88;100.00
41967;BME280;27656;53.068;8.818;2024-01-27T10:37:27;103405.78;;;5.02;100.00
41967;BME280;27656;53.068;8.818;2024-01-27T10:40:05;103405.09;;;4.97;100.00
41967;BME280;27656;53.068;8.818;2024-01-27T10:42:37;103403.00;;;5.06;100.00
41967;BME280;27656;53.068;8.818;2024-01-27T10:45:05;103400.16;;;5.13;100.00
41967;BME280;27656;53.068;8.818;2024-01-27T10:47:32;103398.25;;;5.16;100.00
41967;BME280;27656;53.068;8.818;2024-01-27T10:50:00;103405.91;;;5.22;100.00
41967;BME280;27656;53.068;8.818;2024-01-27T10:52:29;103409.84;;;5.32;100.00
41967;BME280;27656;53.068;8.818;2024-01-27T10:55:02;103411.72;;;5.29;100.00
41967;BME280;27656;53.068;8.818;2024-01-27T10:57:30;103421.47;;;5.25;100.00
41967;BME280;27656;53.068;8.818;2024-01-27T10:59:58;103412.53;;;5.31;100.00
41967;BME280;27656;53.068;8.818;2024-01-27T11:02:24;103412.59;;;5.29;100.00
41967;BME280;27656;53.068;8.818;2024-01-27T11:04:51;103412.34;;;5.36;100.00
41967;BME280;27656;53.068;8.818;2024-01-27T11:07:21;103410.47;;;5.39;100.00
41967;BME280;27656;53.068;8.818;2024-01-27T11:09:50;103409.38;;;5.45;100.00
41967;BME280;27656;53.068;8.818;2024-01-27T11:12:21;103403.66;;;5.57;100.00
41967;BME280;27656;53.068;8.818;2024-01-27T11:14:49;103402.56;;;5.63;100.00
41967;BME280;27656;53.068;8.818;2024-01-27T11:17:18;103409.47;;;5.65;100.00
41967;BME280;27656;53.068;8.818;2024-01-27T11:19:45;103402.97;;;5.74;100.00
41967;BME280;27656;53.068;8.818;2024-01-27T11:22:28;103407.31;;;5.75;100.00
41967;BME280;27656;53.068;8.818;2024-01-27T11:25:14;103397.44;;;5.82;100.00
41967;BME280;27656;53.068;8.818;2024-01-27T11:27:42;103393.66;;;5.89;100.00
41967;BME280;27656;53.068;8.818;2024-01-27T11:30:28;103388.28;;;5.92;100.00
41967;BME280;27656;53.068;8.818;2024-01-27T11:32:56;103389.94;;;5.94;100.00
41967;BME280;27656;53.068;8.818;2024-01-27T11:35:24;103399.59;;;5.92;100.00
41967;BME280;27656;53.068;8.818;2024-01-27T11:37:51;103408.16;;;5.98;100.00
41967;BME280;27656;53.068;8.818;2024-01-27T11:40:18;103419.13;;;6.07;100.00
41967;BME280;27656;53.068;8.818;2024-01-27T11:43:05;103438.56;;;6.24;100.00
41967;BME280;27656;53.068;8.818;2024-01-27T11:45:34;103439.03;;;6.33;100.00
41967;BME280;27656;53.068;8.818;2024-01-27T11:48:00;103438.59;;;6.44;100.00
41967;BME280;27656;53.068;8.818;2024-01-27T11:50:27;103434.06;;;6.48;100.00
41967;BME280;27656;53.068;8.818;2024-01-27T11:52:55;103432.16;;;6.51;100.00
41967;BME280;27656;53.068;8.818;2024-01-27T11:55:22;103439.78;;;6.57;100.00
41967;BME280;27656;53.068;8.818;2024-01-27T11:57:48;103428.19;;;6.62;100.00
41967;BME280;27656;53.068;8.818;2024-01-27T12:00:15;103434.81;;;6.70;100.00
41967;BME280;27656;53.068;8.818;2024-01-27T12:02:42;103434.25;;;6.64;100.00
41967;BME280;27656;53.068;8.818;2024-01-27T12:05:09;103427.94;;;6.68;100.00
41967;BME280;27656;53.068;8.818;2024-01-27T12:07:36;103425.31;;;6.68;100.00
41967;BME280;27656;53.068;8.818;2024-01-27T12:10:03;103419.28;;;6.66;100.00
41967;BME280;27656;53.068;8.818;2024-01-27T12:12:30;103422.50;;;6.72;100.00
41967;BME280;27656;53.068;8.818;2024-01-27T12:14:56;103432.06;;;6.73;100.00
41967;BME280;27656;53.068;8.818;2024-01-27T12:17:25;103419.06;;;6.70;100.00
41967;BME280;27656;53.068;8.818;2024-01-27T12:19:52;103431.06;;;6.76;100.00
41967;BME280;27656;53.068;8.818;2024-01-27T12:22:27;103423.13;;;6.77;100.00
41967;BME280;27656;53.068;8.818;2024-01-27T12:24:56;103427.91;;;6.88;100.00
41967;BME280;27656;53.068;8.818;2024-01-27T12:27:23;103423.09;;;6.98;100.00
41967;BME280;27656;53.068;8.818;2024-01-27T12:29:50;103417.75;;;6.99;100.00
41967;BME280;27656;53.068;8.818;2024-01-27T12:32:17;103418.91;;;6.94;100.00
41967;BME280;27656;53.068;8.818;2024-01-27T12:34:44;103418.91;;;6.94;100.00
41967;BME280;27656;53.068;8.818;2024-01-27T12:37:14;103421.47;;;6.95;100.00
41967;BME280;27656;53.068;8.818;2024-01-27T12:39:53;103427.47;;;6.97;100.00
41967;BME280;27656;53.068;8.818;2024-01-27T12:42:20;103417.72;;;7.01;100.00
41967;BME280;27656;53.068;8.818;2024-01-27T12:44:48;103416.75;;;7.02;100.00
41967;BME280;27656;53.068;8.818;2024-01-27T12:47:15;103411.41;;;7.05;100.00
41967;BME280;27656;53.068;8.818;2024-01-27T12:49:45;103420.75;;;7.11;100.00
41967;BME280;27656;53.068;8.818;2024-01-27T12:52:11;103409.25;;;7.13;100.00